^^
Meteo Knjazevac Station Historical Data
Daily Summary for February 4, 2021 Units:  Metric    English   Both
Daily Weekly Monthly Yearly Custom
  High: Low: Average:
Temperature: 7.7 °C 1.9 °C 4.6 °C
Dew Point: 5.3 °C 0.4 °C 2.7 °C
Humidity: 90% 84% 87%
Wind Speed: 4.8km/h 0km/h 0.5km/h
Wind Gust: 8km/h - -
Wind- - SW
Pressure: 1026 hPa 1025.3 hPa -
Precipitation: 0 mm    
Historical Graphs
 
 
Tabular Data for February 4, 2021
Time Temperature Dew Point Pressure Wind Wind Speed Wind Gust Humidity Rainfall Rate (Hourly) solar Conditions
00:00 7.7 °C 5.3 °C 1025.3 hPa ENE 1.6 km/h 4.8 km/h 85% 0 mm 0 W/m2
00:10 7.6 °C 5.2 °C 1025.3 hPa ESE 1.6 km/h 4.8 km/h 85% 0 mm 0 W/m2
00:20 7.5 °C 5.2 °C 1025.3 hPa SSE 1.6 km/h 4.8 km/h 85% 0 mm 0 W/m2
00:30 7.4 °C 5.1 °C 1025.3 hPa Calm   4.8 km/h 85% 0 mm 0 W/m2
00:40 7.3 °C 4.9 °C 1025.3 hPa Calm   3.2 km/h 85% 0 mm 0 W/m2
00:50 7.2 °C 5 °C 1025.3 hPa North 1.6 km/h 3.2 km/h 86% 0 mm 0 W/m2
01:00 7 °C 4.5 °C 1025.6 hPa Calm   3.2 km/h 84% 0 mm 0 W/m2
01:10 6.7 °C 4.2 °C 1025.3 hPa Calm   3.2 km/h 84% 0 mm 0 W/m2
01:20 6.6 °C 4.2 °C 1025.3 hPa Calm   3.2 km/h 85% 0 mm 0 W/m2
01:30 6.3 °C 3.8 °C 1025.3 hPa Calm     84% 0 mm 0 W/m2
01:40 6 °C 3.5 °C 1025.6 hPa Calm     84% 0 mm 0 W/m2
01:50 5.7 °C 3.4 °C 1025.6 hPa Calm   1.6 km/h 85% 0 mm 0 W/m2
02:00 5.5 °C 3.2 °C 1025.3 hPa Calm   3.2 km/h 85% 0 mm 0 W/m2
02:10 5.3 °C 3 °C 1025.3 hPa Calm   1.6 km/h 85% 0 mm 0 W/m2
02:20 5.1 °C 2.9 °C 1025.6 hPa NW 1.6 km/h 3.2 km/h 86% 0 mm 0 W/m2
02:30 5 °C 3 °C 1025.6 hPa NW 1.6 km/h 4.8 km/h 87% 0 mm 0 W/m2
02:40 5.1 °C 3.4 °C 1025.6 hPa Calm   3.2 km/h 89% 0 mm 0 W/m2
02:50 4.9 °C 2.8 °C 1025.6 hPa Calm   1.6 km/h 86% 0 mm 0 W/m2
03:00 4.6 °C 2.4 °C 1025.3 hPa West 1.6 km/h 3.2 km/h 86% 0 mm 0 W/m2
03:10 4.3 °C 2.5 °C 1025.3 hPa WNW 4.8 km/h 8 km/h 88% 0 mm 0 W/m2
03:20 4.3 °C 2.7 °C 1025.3 hPa Calm   8 km/h 89% 0 mm 0 W/m2
03:30 4.3 °C 2.7 °C 1025.3 hPa Calm   1.6 km/h 89% 0 mm 0 W/m2
03:40 4 °C 2.2 °C 1025.3 hPa Calm   3.2 km/h 88% 0 mm 0 W/m2
03:50 3.9 °C 2.1 °C 1025.3 hPa Calm   3.2 km/h 88% 0 mm 0 W/m2
04:00 3.8 °C 1.9 °C 1025.3 hPa Calm   1.6 km/h 88% 0 mm 0 W/m2
04:10 3.6 °C 1.8 °C 1025.3 hPa NW 1.6 km/h 3.2 km/h 88% 0 mm 0 W/m2
04:20 3.5 °C 1.8 °C 1025.3 hPa NW 1.6 km/h 3.2 km/h 89% 0 mm 0 W/m2
04:30 3.5 °C 2 °C 1025.3 hPa Calm   4.8 km/h 90% 0 mm 0 W/m2
04:40 3.4 °C 1.8 °C 1025.3 hPa Calm   1.6 km/h 89% 0 mm 0 W/m2
04:50 3.3 °C 1.6 °C 1025.3 hPa Calm   3.2 km/h 89% 0 mm 0 W/m2
05:00 3 °C 1.4 °C 1025.6 hPa Calm   3.2 km/h 89% 0 mm 0 W/m2
05:10 3 °C 1.5 °C 1025.6 hPa Calm   3.2 km/h 90% 0 mm 0 W/m2
05:20 2.8 °C 1.2 °C 1025.6 hPa NW 1.6 km/h 3.2 km/h 89% 0 mm 0 W/m2
05:30 2.6 °C 0.9 °C 1025.6 hPa Calm   3.2 km/h 89% 0 mm 0 W/m2
05:40 2.5 °C 0.9 °C 1025.6 hPa Calm     89% 0 mm 0 W/m2
05:50 2.4 °C 0.9 °C 1026 hPa Calm     90% 0 mm 0 W/m2
06:00 2.3 °C 0.8 °C 1026 hPa Calm   1.6 km/h 90% 0 mm 0 W/m2
06:10 2.2 °C 0.7 °C 1026 hPa Calm     90% 0 mm 0 W/m2
06:20 2.2 °C 0.7 °C 1026 hPa Calm   1.6 km/h 90% 0 mm 0 W/m2
06:30 2 °C 0.6 °C 1026 hPa Calm   3.2 km/h 90% 0 mm 0 W/m2
06:40 1.9 °C 0.4 °C 1026 hPa WNW 1.6 km/h 3.2 km/h 90% 0 mm 8 W/m2
Knjazevac, Serbia
Compliments of Weather Underground - 2 mb